TAP1935 LPPR-LPPT
Flight info
| Callsign | TAP1935 |
|---|---|
| Flight time | N/A |
| Altitude | 23000 |
| Route | MANIK DCT ABRIL DCT XAMAX |
| Aircraft | A20N/M-SDE2E3FGHIRWXY/LB1 |
Departure
| Time | N/A |
|---|---|
| Airport | Francisco de Sá Carneiro Airport (LPPR) |
Arrival
| Time | 2026-05-04 00:06 |
|---|---|
| Airport | Lisbon Humberto Delgado Airport (LPPT) |
| Time | Latitude | Longitude | Altitude | Speed | Heading |
|---|---|---|---|---|---|
| 2026-05-03 23:32 | 40.69881 | -8.61924 | 10067 ft | 336 kts | 168° |
| 2026-05-03 23:33 | 40.67641 | -8.61401 | 10072 ft | 318 kts | 177° |
| 2026-05-03 23:33 | 40.65508 | -8.61156 | 10006 ft | 306 kts | 177° |
| 2026-05-03 23:33 | 40.63401 | -8.60904 | 10223 ft | 300 kts | 177° |
| 2026-05-03 23:33 | 40.61287 | -8.60651 | 10320 ft | 314 kts | 177° |
| 2026-05-03 23:34 | 40.59060 | -8.60386 | 10638 ft | 334 kts | 177° |
| 2026-05-03 23:34 | 40.56732 | -8.60104 | 11465 ft | 337 kts | 177° |
| 2026-05-03 23:34 | 40.54391 | -8.59818 | 12367 ft | 340 kts | 177° |
| 2026-05-03 23:34 | 40.52020 | -8.59529 | 13213 ft | 343 kts | 177° |
| 2026-05-03 23:35 | 40.49628 | -8.59238 | 14042 ft | 347 kts | 177° |
| 2026-05-03 23:35 | 40.47209 | -8.58944 | 14804 ft | 350 kts | 178° |
| 2026-05-03 23:35 | 40.44768 | -8.58649 | 15571 ft | 353 kts | 178° |
| 2026-05-03 23:35 | 40.44079 | -8.58566 | 15780 ft | 354 kts | 178° |
| 2026-05-03 23:36 | 40.42032 | -8.58319 | 16411 ft | 356 kts | 178° |
| 2026-05-03 23:36 | 40.39546 | -8.58020 | 17155 ft | 359 kts | 178° |
| 2026-05-03 23:36 | 40.37043 | -8.57717 | 17884 ft | 363 kts | 178° |
| 2026-05-03 23:36 | 40.34545 | -8.57414 | 18571 ft | 366 kts | 178° |
| 2026-05-03 23:37 | 40.32004 | -8.57105 | 19232 ft | 368 kts | 179° |
| 2026-05-03 23:37 | 40.29446 | -8.56793 | 19893 ft | 370 kts | 179° |
| 2026-05-03 23:37 | 40.26880 | -8.56480 | 20537 ft | 372 kts | 179° |
| 2026-05-03 23:37 | 40.24288 | -8.56165 | 21197 ft | 374 kts | 179° |
| 2026-05-03 23:38 | 40.21694 | -8.55850 | 21844 ft | 376 kts | 180° |
| 2026-05-03 23:38 | 40.19065 | -8.55532 | 22476 ft | 379 kts | 180° |
| 2026-05-03 23:38 | 40.16423 | -8.55213 | 22931 ft | 382 kts | 180° |
| 2026-05-03 23:38 | 40.13772 | -8.54892 | 23050 ft | 382 kts | 180° |
| 2026-05-03 23:39 | 40.11161 | -8.54576 | 23075 ft | 381 kts | 180° |
| 2026-05-03 23:39 | 40.08512 | -8.54256 | 23074 ft | 381 kts | 180° |
| 2026-05-03 23:39 | 40.05870 | -8.53951 | 23078 ft | 381 kts | 181° |
| 2026-05-03 23:39 | 40.03219 | -8.53637 | 23072 ft | 381 kts | 180° |
| 2026-05-03 23:40 | 40.00584 | -8.53372 | 23069 ft | 379 kts | 185° |
| 2026-05-03 23:40 | 39.98014 | -8.53799 | 23072 ft | 369 kts | 201° |
| 2026-05-03 23:40 | 39.95699 | -8.55141 | 23078 ft | 363 kts | 213° |
| 2026-05-03 23:40 | 39.93508 | -8.56800 | 23035 ft | 363 kts | 213° |
| 2026-05-03 23:41 | 39.91350 | -8.58430 | 23055 ft | 362 kts | 213° |
| 2026-05-03 23:41 | 39.89165 | -8.60077 | 23062 ft | 363 kts | 213° |
| 2026-05-03 23:41 | 39.86977 | -8.61723 | 23055 ft | 363 kts | 213° |
| 2026-05-03 23:41 | 39.84791 | -8.63364 | 23060 ft | 363 kts | 213° |
| 2026-05-03 23:42 | 39.82604 | -8.65004 | 23059 ft | 363 kts | 213° |
| 2026-05-03 23:42 | 39.81152 | -8.66091 | 23055 ft | 363 kts | 213° |
| 2026-05-03 23:42 | 39.78959 | -8.67732 | 23053 ft | 363 kts | 213° |
| 2026-05-03 23:42 | 39.76056 | -8.69903 | 23050 ft | 363 kts | 213° |
| 2026-05-03 23:43 | 39.73859 | -8.71544 | 23059 ft | 363 kts | 213° |
| 2026-05-03 23:43 | 39.72412 | -8.72625 | 23059 ft | 363 kts | 213° |
| 2026-05-03 23:43 | 39.70212 | -8.74266 | 23050 ft | 364 kts | 213° |
| 2026-05-03 23:43 | 39.68019 | -8.75899 | 23055 ft | 363 kts | 213° |
| 2026-05-03 23:44 | 39.65828 | -8.77530 | 23058 ft | 363 kts | 213° |
| 2026-05-03 23:44 | 39.63634 | -8.79164 | 23064 ft | 363 kts | 213° |
| 2026-05-03 23:44 | 39.61443 | -8.80794 | 23066 ft | 363 kts | 213° |
| 2026-05-03 23:44 | 39.59251 | -8.82424 | 23065 ft | 363 kts | 213° |
| 2026-05-03 23:45 | 39.57091 | -8.84027 | 23066 ft | 361 kts | 213° |
| 2026-05-03 23:45 | 39.54901 | -8.85653 | 23070 ft | 363 kts | 213° |
| 2026-05-03 23:45 | 39.52703 | -8.87283 | 23069 ft | 363 kts | 213° |
| 2026-05-03 23:45 | 39.50513 | -8.88906 | 23072 ft | 363 kts | 213° |
| 2026-05-03 23:46 | 39.48319 | -8.90530 | 23077 ft | 363 kts | 213° |
| 2026-05-03 23:46 | 39.46127 | -8.92152 | 23051 ft | 363 kts | 213° |
| 2026-05-03 23:46 | 39.43933 | -8.93773 | 23078 ft | 363 kts | 214° |
| 2026-05-03 23:46 | 39.41738 | -8.95395 | 23080 ft | 363 kts | 214° |
| 2026-05-03 23:47 | 39.39544 | -8.97016 | 23083 ft | 363 kts | 214° |
| 2026-05-03 23:47 | 39.37348 | -8.98637 | 23084 ft | 363 kts | 214° |
| 2026-05-03 23:47 | 39.35153 | -9.00255 | 23084 ft | 363 kts | 214° |
| 2026-05-03 23:47 | 39.32954 | -9.01875 | 23083 ft | 363 kts | 214° |
| 2026-05-03 23:48 | 39.30783 | -9.03473 | 23083 ft | 363 kts | 214° |
| 2026-05-03 23:48 | 39.28588 | -9.05087 | 23080 ft | 363 kts | 214° |
| 2026-05-03 23:48 | 39.26382 | -9.06708 | 22983 ft | 363 kts | 214° |
| 2026-05-03 23:48 | 39.24181 | -9.08325 | 22484 ft | 365 kts | 214° |
| 2026-05-03 23:49 | 39.21967 | -9.09951 | 21372 ft | 369 kts | 214° |
| 2026-05-03 23:49 | 39.19721 | -9.11599 | 20465 ft | 372 kts | 214° |
| 2026-05-03 23:49 | 39.17508 | -9.13221 | 19910 ft | 368 kts | 213° |
| 2026-05-03 23:49 | 39.15289 | -9.14842 | 19612 ft | 356 kts | 213° |
| 2026-05-03 23:50 | 39.13405 | -9.16216 | 19287 ft | 349 kts | 213° |
| 2026-05-03 23:51 | 39.11689 | -9.17471 | 18867 ft | 346 kts | 213° |
| 2026-05-03 23:51 | 39.09605 | -9.18998 | 18312 ft | 344 kts | 213° |
| 2026-05-03 23:51 | 39.07531 | -9.20515 | 17781 ft | 340 kts | 213° |
| 2026-05-03 23:52 | 39.05510 | -9.21992 | 17277 ft | 336 kts | 213° |
| 2026-05-03 23:52 | 39.03487 | -9.23469 | 16764 ft | 333 kts | 213° |
| 2026-05-03 23:52 | 39.01478 | -9.24934 | 16264 ft | 330 kts | 213° |
| 2026-05-03 23:52 | 38.99489 | -9.26384 | 15756 ft | 328 kts | 213° |
| 2026-05-03 23:53 | 38.97509 | -9.27827 | 15262 ft | 325 kts | 213° |
| 2026-05-03 23:53 | 38.95545 | -9.29256 | 14787 ft | 323 kts | 214° |
| 2026-05-03 23:53 | 38.93600 | -9.30682 | 14291 ft | 322 kts | 213° |
| 2026-05-03 23:53 | 38.91654 | -9.32095 | 13820 ft | 320 kts | 212° |
| 2026-05-03 23:54 | 38.89719 | -9.33496 | 13313 ft | 318 kts | 212° |
| 2026-05-03 23:54 | 38.87800 | -9.34886 | 12840 ft | 315 kts | 212° |
| 2026-05-03 23:54 | 38.85903 | -9.36259 | 12388 ft | 312 kts | 212° |
| 2026-05-03 23:54 | 38.84015 | -9.37626 | 11927 ft | 310 kts | 212° |
| 2026-05-03 23:55 | 38.82144 | -9.38982 | 11491 ft | 307 kts | 212° |
| 2026-05-03 23:55 | 38.80289 | -9.40325 | 11045 ft | 306 kts | 212° |
| 2026-05-03 23:55 | 38.78438 | -9.41665 | 10607 ft | 308 kts | 212° |
| 2026-05-03 23:55 | 38.76519 | -9.43058 | 10416 ft | 329 kts | 212° |
| 2026-05-03 23:56 | 38.74523 | -9.44502 | 10379 ft | 328 kts | 212° |
| 2026-05-03 23:56 | 38.72553 | -9.45920 | 10314 ft | 320 kts | 212° |
| 2026-05-03 23:56 | 38.70648 | -9.47291 | 10215 ft | 308 kts | 212° |
| 2026-05-03 23:56 | 38.68830 | -9.48598 | 10024 ft | 290 kts | 212° |
| 2026-05-03 23:57 | 38.67093 | -9.49848 | 9480 ft | 285 kts | 212° |
| 2026-05-03 23:57 | 38.65369 | -9.51092 | 8828 ft | 284 kts | 212° |
| 2026-05-03 23:57 | 38.63655 | -9.52328 | 8303 ft | 278 kts | 212° |
| 2026-05-03 23:57 | 38.61987 | -9.53528 | 8135 ft | 277 kts | 212° |
| 2026-05-03 23:58 | 38.60310 | -9.54674 | 7997 ft | 267 kts | 204° |
| 2026-05-03 23:58 | 38.58564 | -9.55094 | 7899 ft | 252 kts | 182° |
| 2026-05-03 23:58 | 38.56838 | -9.54776 | 7482 ft | 251 kts | 171° |
| 2026-05-03 23:58 | 38.55199 | -9.53962 | 6782 ft | 262 kts | 145° |
| 2026-05-03 23:59 | 38.53952 | -9.52164 | 5875 ft | 275 kts | 116° |
| 2026-05-03 23:59 | 38.53506 | -9.49833 | 5221 ft | 274 kts | 86° |
| 2026-05-03 23:59 | 38.53823 | -9.47442 | 4953 ft | 275 kts | 71° |
| 2026-05-03 23:59 | 38.54381 | -9.45108 | 4732 ft | 273 kts | 70° |
| 2026-05-04 00:00 | 38.54908 | -9.42797 | 4394 ft | 268 kts | 72° |
| 2026-05-04 00:00 | 38.55352 | -9.40523 | 4154 ft | 264 kts | 75° |
| 2026-05-04 00:00 | 38.55742 | -9.38234 | 4097 ft | 257 kts | 76° |
| 2026-05-04 00:00 | 38.56081 | -9.36054 | 4092 ft | 242 kts | 76° |
| 2026-05-04 00:01 | 38.56386 | -9.34004 | 4090 ft | 230 kts | 77° |
| 2026-05-04 00:01 | 38.56688 | -9.31976 | 4081 ft | 233 kts | 76° |
| 2026-05-04 00:01 | 38.57194 | -9.30027 | 4095 ft | 230 kts | 64° |
| 2026-05-04 00:01 | 38.57803 | -9.28165 | 4091 ft | 230 kts | 64° |
| 2026-05-04 00:02 | 38.58414 | -9.26273 | 4082 ft | 230 kts | 65° |
| 2026-05-04 00:02 | 38.59183 | -9.24507 | 4067 ft | 226 kts | 45° |
| 2026-05-04 00:02 | 38.60370 | -9.23231 | 3878 ft | 224 kts | 28° |
| 2026-05-04 00:02 | 38.61753 | -9.22319 | 3567 ft | 223 kts | 21° |
| 2026-05-04 00:03 | 38.63192 | -9.21569 | 3259 ft | 222 kts | 19° |
| 2026-05-04 00:03 | 38.64614 | -9.20806 | 2948 ft | 220 kts | 19° |
| 2026-05-04 00:03 | 38.66012 | -9.20065 | 2642 ft | 213 kts | 19° |
| 2026-05-04 00:03 | 38.67326 | -9.19362 | 2352 ft | 197 kts | 19° |
| 2026-05-04 00:04 | 38.68550 | -9.18709 | 2094 ft | 188 kts | 19° |
| 2026-05-04 00:04 | 38.69722 | -9.18084 | 1881 ft | 176 kts | 19° |
| 2026-05-04 00:04 | 38.70815 | -9.17502 | 1634 ft | 168 kts | 19° |
| 2026-05-04 00:04 | 38.71860 | -9.16942 | 1415 ft | 157 kts | 19° |
| 2026-05-04 00:05 | 38.72827 | -9.16425 | 1191 ft | 143 kts | 18° |
| 2026-05-04 00:05 | 38.73705 | -9.15956 | 983 ft | 132 kts | 19° |
| 2026-05-04 00:05 | 38.74562 | -9.15505 | 767 ft | 133 kts | 18° |
| 2026-05-04 00:05 | 38.75424 | -9.15048 | 633 ft | 137 kts | 21° |
| 2026-05-04 00:06 | 38.76282 | -9.14560 | 468 ft | 134 kts | 19° |
| 2026-05-04 00:06 | 38.77147 | -9.14124 | 362 ft | 127 kts | 20° |
| 2026-05-04 00:06 | 38.77750 | -9.13802 | 365 ft | 65 kts | 22° |
| 2026-05-04 00:06 | 38.78105 | -9.13617 | 366 ft | 43 kts | 24° |
| 2026-05-04 00:07 | 38.78324 | -9.13422 | 364 ft | 39 kts | 49° |
| 2026-05-04 00:07 | 38.78406 | -9.13297 | 363 ft | 3 kts | 110° |
| 2026-05-04 00:07 | 38.78398 | -9.13288 | 365 ft | 1 kts | 142° |
| 2026-05-04 00:07 | 38.78395 | -9.13284 | 361 ft | 1 kts | 143° |
| 2026-05-04 00:08 | 38.78383 | -9.13275 | 360 ft | 6 kts | 149° |
| 2026-05-04 00:08 | 38.78315 | -9.13267 | 360 ft | 13 kts | 193° |
| 2026-05-04 00:08 | 38.78219 | -9.13316 | 358 ft | 17 kts | 202° |
| 2026-05-04 00:08 | 38.78104 | -9.13375 | 359 ft | 19 kts | 202° |
| 2026-05-04 00:09 | 38.77967 | -9.13401 | 353 ft | 22 kts | 169° |
| 2026-05-04 00:09 | 38.77795 | -9.13355 | 347 ft | 28 kts | 169° |
| 2026-05-04 00:09 | 38.77586 | -9.13318 | 334 ft | 32 kts | 175° |
| 2026-05-04 00:09 | 38.77369 | -9.13265 | 336 ft | 32 kts | 170° |
| 2026-05-04 00:10 | 38.77274 | -9.13244 | 338 ft | 1 kts | 170° |
| 2026-05-04 00:10 | 38.77251 | -9.13239 | 336 ft | 5 kts | 170° |
| 2026-05-04 00:10 | 38.77203 | -9.13226 | 333 ft | 9 kts | 168° |
| 2026-05-04 00:10 | 38.77132 | -9.13206 | 337 ft | 12 kts | 168° |
| 2026-05-04 00:11 | 38.77060 | -9.13188 | 335 ft | 0 kts | 168° |
| 2026-05-04 00:11 | 38.77047 | -9.13185 | 337 ft | 4 kts | 168° |
| 2026-05-04 00:11 | 38.77016 | -9.13170 | 338 ft | 3 kts | 124° |
| 2026-05-04 00:11 | 38.77019 | -9.13128 | 333 ft | 5 kts | 66° |
| 2026-05-04 00:12 | 38.77023 | -9.13113 | 334 ft | 4 kts | 75° |
| 2026-05-04 00:12 | 38.77026 | -9.13097 | 336 ft | 3 kts | 76° |
| 2026-05-04 00:12 | 38.77026 | -9.13095 | 336 ft | 0 kts | 77° |
| 2026-05-04 00:13 | 38.77027 | -9.13088 | 335 ft | 0 kts | 77° |
| 2026-05-04 00:14 | 38.77028 | -9.13087 | 335 ft | 0 kts | 78° |